createdAt,value
2019-01-13T00:01:28.739Z,21.2
2019-01-13T00:11:27.937Z,21.2
2019-01-13T00:21:27.137Z,21.2
2019-01-13T00:31:26.339Z,21.2
2019-01-13T00:41:25.543Z,21.2
2019-01-13T00:51:24.743Z,21.2
2019-01-13T01:01:23.945Z,21.2
2019-01-13T01:11:23.143Z,21.1
2019-01-13T01:21:22.343Z,21.1
2019-01-13T01:31:21.547Z,21.1
2019-01-13T01:41:20.747Z,21.1
2019-01-13T01:51:19.947Z,21
2019-01-13T02:01:19.204Z,21
2019-01-13T02:11:18.347Z,21
2019-01-13T02:21:17.549Z,21
2019-01-13T02:31:16.752Z,21
2019-01-13T02:41:15.950Z,20.9
2019-01-13T02:51:15.151Z,20.9
2019-01-13T03:01:14.348Z,20.9
2019-01-13T03:11:13.551Z,20.9
2019-01-13T03:21:12.751Z,20.9
2019-01-13T03:31:12.773Z,20.9
2019-01-13T03:41:11.153Z,20.9
2019-01-13T03:51:10.355Z,21
2019-01-13T04:01:09.557Z,21.1
2019-01-13T04:11:08.761Z,21
2019-01-13T04:21:07.985Z,21
2019-01-13T04:31:07.171Z,20.9
2019-01-13T04:41:06.374Z,20.9
2019-01-13T04:51:05.574Z,20.9
2019-01-13T05:01:04.774Z,20.9
2019-01-13T05:11:03.973Z,20.9
2019-01-13T05:21:03.176Z,20.9
2019-01-13T05:31:02.375Z,20.8
2019-01-13T05:41:01.573Z,20.8
2019-01-13T05:51:00.778Z,20.8
2019-01-13T06:00:59.970Z,20.8
2019-01-13T06:10:59.170Z,20.8
2019-01-13T06:20:58.372Z,20.8
2019-01-13T06:30:57.568Z,20.9
2019-01-13T06:40:56.771Z,20.9
2019-01-13T06:50:55.968Z,20.9
2019-01-13T07:00:55.271Z,21.1
2019-01-13T07:10:54.377Z,21.1
2019-01-13T07:20:53.578Z,21.2
2019-01-13T07:30:52.783Z,21.4
2019-01-13T07:40:51.992Z,21.5
2019-01-13T07:50:51.194Z,21.6
2019-01-13T08:00:50.398Z,21.8
2019-01-13T08:10:49.612Z,22
2019-01-13T08:20:48.808Z,22.1
2019-01-13T08:30:48.013Z,21.9
2019-01-13T08:40:47.225Z,21.9
2019-01-13T08:50:46.432Z,22.1
2019-01-13T09:00:45.632Z,21.9
2019-01-13T09:10:44.841Z,21.9
2019-01-13T09:20:44.039Z,22.1
2019-01-13T09:30:43.244Z,22.1
2019-01-13T09:40:42.449Z,22.1
2019-01-13T09:50:41.654Z,22.1
2019-01-13T10:00:40.871Z,22.1
2019-01-13T10:10:40.069Z,22.2
2019-01-13T10:20:39.279Z,22.1
2019-01-13T10:30:38.485Z,22.2
2019-01-13T10:40:37.698Z,22.1
2019-01-13T10:50:36.910Z,22.3
2019-01-13T11:00:36.127Z,22.2
2019-01-13T11:10:35.336Z,22.1
2019-01-13T11:20:34.547Z,22.1
2019-01-13T11:30:33.759Z,22.1
2019-01-13T11:40:32.963Z,22
2019-01-13T11:50:32.168Z,22
2019-01-13T12:00:31.377Z,22
2019-01-13T12:10:30.588Z,21.9
2019-01-13T12:20:29.796Z,21.9
2019-01-13T12:30:29.008Z,22
2019-01-13T12:40:28.221Z,22
2019-01-13T12:50:27.429Z,22
2019-01-13T13:00:26.634Z,22
2019-01-13T13:10:25.842Z,22
2019-01-13T13:20:25.100Z,22.1
2019-01-13T13:30:24.254Z,22
2019-01-13T13:40:23.461Z,22.1
2019-01-13T13:50:22.669Z,22
2019-01-13T14:00:21.875Z,22.1
2019-01-13T14:10:21.079Z,21.9
2019-01-13T14:20:20.278Z,21.9
2019-01-13T14:30:19.689Z,21.9
2019-01-13T14:40:20.280Z,22
2019-01-13T14:50:17.904Z,22
2019-01-13T15:00:17.114Z,22.1
2019-01-13T15:10:16.324Z,22.1
2019-01-13T15:20:15.536Z,22.3
2019-01-13T15:30:14.746Z,22.3
2019-01-13T15:40:13.955Z,22.1
2019-01-13T15:50:13.169Z,22
2019-01-13T16:00:12.379Z,21.9
2019-01-13T16:10:11.619Z,21.9
2019-01-13T16:20:10.825Z,21.7
2019-01-13T16:30:10.018Z,21.8
2019-01-13T16:40:09.224Z,21.7
2019-01-13T16:50:08.436Z,21.9
2019-01-13T17:00:07.651Z,22.1
2019-01-13T17:10:06.856Z,22.1
2019-01-13T17:20:06.059Z,22.2
2019-01-13T17:30:05.268Z,22.3
2019-01-13T17:40:04.480Z,22.3
2019-01-13T17:50:04.620Z,22.3
2019-01-13T18:00:02.926Z,22.3
2019-01-13T18:10:02.113Z,22.3
2019-01-13T18:20:01.333Z,22.1
2019-01-13T18:30:00.543Z,22.3
2019-01-13T18:39:59.777Z,22.3
2019-01-13T18:49:58.957Z,22.2
2019-01-13T18:59:58.183Z,22.1
2019-01-13T19:09:57.368Z,21.9
2019-01-13T19:19:56.578Z,21.9
2019-01-13T19:29:55.787Z,22.1
2019-01-13T19:39:54.990Z,22.1
2019-01-13T19:49:54.396Z,22.1
2019-01-13T19:59:53.400Z,22.1
2019-01-13T20:09:52.609Z,21.9
2019-01-13T20:19:51.814Z,21.9
2019-01-13T20:29:51.019Z,21.8
2019-01-13T20:39:50.225Z,21.7
2019-01-13T20:49:49.429Z,21.8
2019-01-13T20:59:48.637Z,21.8
2019-01-13T21:09:47.842Z,21.8
2019-01-13T21:19:47.050Z,21.8
2019-01-13T21:29:46.254Z,21.7
2019-01-13T21:39:45.455Z,21.6
2019-01-13T21:49:44.662Z,21.6
2019-01-13T21:59:43.865Z,21.6
2019-01-13T22:09:43.069Z,21.5
2019-01-13T22:19:42.276Z,21.4
2019-01-13T22:29:41.477Z,21.4
2019-01-13T22:39:40.681Z,21.4
2019-01-13T22:49:39.885Z,21.4
2019-01-13T22:59:39.087Z,21.4
2019-01-13T23:09:38.290Z,21.3
2019-01-13T23:19:37.497Z,21.3
2019-01-13T23:29:36.700Z,21.3
2019-01-13T23:39:35.901Z,21.3
2019-01-13T23:49:35.106Z,21.3
2019-01-13T23:59:34.307Z,21.2
